createdAt,value
2018-05-08T00:03:48.386Z,44.20
2018-05-08T00:08:49.372Z,44.50
2018-05-08T00:13:51.128Z,43.60
2018-05-08T00:18:52.877Z,43.50
2018-05-08T00:23:53.860Z,43.40
2018-05-08T00:28:55.654Z,43.60
2018-05-08T00:33:56.659Z,43.60
2018-05-08T00:38:57.672Z,43.30
2018-05-08T00:43:58.674Z,42.90
2018-05-08T00:48:59.674Z,41.90
2018-05-08T00:54:01.413Z,40.20
2018-05-08T00:59:02.418Z,40.20
2018-05-08T01:04:03.410Z,40.30
2018-05-08T01:09:04.390Z,39.80
2018-05-08T01:14:05.394Z,39.00
2018-05-08T01:19:06.379Z,38.10
2018-05-08T01:24:07.382Z,37.80
2018-05-08T01:29:08.385Z,37.00
2018-05-08T01:34:09.379Z,36.60
2018-05-08T01:39:10.387Z,36.70
2018-05-08T01:44:11.393Z,37.30
2018-05-08T01:49:12.397Z,44.30
2018-05-08T01:54:13.410Z,45.70
2018-05-08T01:59:14.413Z,46.40
2018-05-08T02:04:15.428Z,45.80
2018-05-08T02:09:16.434Z,45.90
2018-05-08T02:14:17.425Z,45.80
2018-05-08T02:19:18.422Z,46.60
2018-05-08T02:24:20.150Z,47.10
2018-05-08T02:29:21.149Z,47.00
2018-05-08T02:34:22.907Z,46.40
2018-05-08T02:39:23.907Z,46.30
2018-05-08T02:44:24.917Z,47.50
2018-05-08T02:49:25.921Z,45.90
2018-05-08T02:54:26.918Z,45.20
2018-05-08T02:59:27.948Z,46.60
2018-05-08T03:04:28.933Z,46.20
2018-05-08T03:09:29.950Z,45.10
2018-05-08T03:14:30.963Z,44.80
2018-05-08T03:19:32.362Z,44.30
2018-05-08T03:24:34.130Z,44.40
2018-05-08T03:29:35.900Z,46.00
2018-05-08T03:34:37.728Z,46.50
2018-05-08T03:39:38.758Z,46.50
2018-05-08T03:44:39.777Z,46.20
2018-05-08T03:49:40.774Z,49.50
2018-05-08T03:54:41.794Z,48.00
2018-05-08T03:59:42.817Z,48.50
2018-05-08T04:04:56.184Z,48.50
2018-05-08T04:09:58.794Z,53.50
2018-05-08T04:14:59.860Z,53.50
2018-05-08T04:20:00.814Z,55.20
2018-05-08T04:25:01.851Z,55.30
2018-05-08T04:30:02.870Z,53.50
2018-05-08T04:35:03.890Z,52.30
2018-05-08T04:40:04.892Z,54.40
2018-05-08T04:45:05.890Z,54.90
2018-05-08T04:50:06.914Z,54.80
2018-05-08T04:55:07.944Z,56.30
2018-05-08T05:00:08.950Z,55.60
2018-05-08T05:05:10.008Z,54.60
2018-05-08T05:10:11.014Z,51.70
2018-05-08T05:15:12.783Z,50.00
2018-05-08T05:20:14.522Z,52.90
2018-05-08T05:25:15.508Z,52.80
2018-05-08T05:30:16.507Z,50.00
2018-05-08T05:35:17.489Z,48.90
2018-05-08T05:40:18.472Z,47.90
2018-05-08T05:45:19.471Z,46.40
2018-05-08T05:50:20.471Z,48.00
2018-05-08T05:55:21.463Z,46.20
2018-05-08T06:00:23.217Z,45.20
2018-05-08T06:05:24.225Z,45.20
2018-05-08T06:10:25.209Z,43.80
2018-05-08T06:15:26.198Z,43.20
2018-05-08T06:20:27.273Z,42.70
2018-05-08T06:25:28.223Z,42.30
2018-05-08T06:30:29.978Z,42.80
2018-05-08T06:35:30.965Z,42.70
2018-05-08T06:40:32.702Z,38.70
2018-05-08T06:45:33.702Z,38.80
2018-05-08T06:50:35.434Z,39.20
2018-05-08T06:55:36.431Z,39.20
2018-05-08T07:00:37.427Z,35.80
2018-05-08T07:05:38.409Z,36.40
2018-05-08T07:10:39.397Z,36.70
2018-05-08T07:15:41.193Z,35.10
2018-05-08T07:20:42.142Z,35.00
2018-05-08T07:25:43.162Z,35.40
2018-05-08T07:30:44.159Z,35.00
2018-05-08T07:35:45.150Z,34.20
2018-05-08T07:40:46.153Z,34.10
2018-05-08T07:45:47.884Z,33.30
2018-05-08T07:50:48.882Z,33.20
2018-05-08T07:55:50.630Z,31.40
2018-05-08T08:00:51.631Z,31.30
2018-05-08T08:05:53.373Z,30.90
2018-05-08T08:10:54.369Z,30.90
2018-05-08T08:15:55.367Z,31.10
2018-05-08T08:20:56.353Z,29.70
2018-05-08T08:25:57.354Z,29.90
2018-05-08T08:30:58.357Z,29.80
2018-05-08T08:35:59.345Z,29.70
2018-05-08T08:41:01.079Z,31.60
2018-05-08T08:46:02.071Z,31.70
2018-05-08T08:51:03.820Z,29.10
2018-05-08T08:56:04.855Z,28.70
2018-05-08T09:01:06.550Z,29.20
2018-05-08T09:06:07.538Z,29.10
2018-05-08T09:11:08.572Z,30.20
2018-05-08T09:16:09.566Z,30.20
2018-05-08T09:21:10.561Z,30.40
2018-05-08T09:26:11.567Z,29.70
2018-05-08T09:31:13.298Z,28.80
2018-05-08T09:36:14.301Z,28.80
2018-05-08T09:41:16.034Z,29.90
2018-05-08T09:46:17.033Z,29.40
2018-05-08T09:51:18.820Z,27.70
2018-05-08T09:56:19.751Z,27.10
2018-05-08T10:01:21.504Z,29.20
2018-05-08T10:06:22.509Z,28.50
2018-05-08T10:11:23.521Z,29.20
2018-05-08T10:16:24.517Z,29.30
2018-05-08T10:21:26.257Z,29.40
2018-05-08T10:26:27.246Z,29.40
2018-05-08T10:31:28.984Z,29.20
2018-05-08T10:36:29.982Z,28.80
2018-05-08T10:41:31.709Z,28.30
2018-05-08T10:46:32.701Z,28.30
2018-05-08T10:51:34.438Z,28.90
2018-05-08T10:56:35.426Z,28.90
2018-05-08T11:01:36.474Z,29.30
2018-05-08T11:06:38.142Z,30.30
2018-05-08T11:11:39.140Z,30.30
2018-05-08T11:16:40.873Z,28.80
2018-05-08T11:21:41.878Z,28.80
2018-05-08T11:26:42.990Z,28.30
2018-05-08T11:31:43.894Z,29.50
2018-05-08T11:36:44.877Z,28.70
2018-05-08T11:41:45.873Z,27.70
2018-05-08T11:46:46.889Z,29.60
2018-05-08T11:51:47.898Z,28.90
2018-05-08T11:56:49.664Z,29.30
2018-05-08T12:01:50.670Z,29.00
2018-05-08T12:06:51.693Z,29.70
2018-05-08T12:11:53.419Z,28.80
2018-05-08T12:16:54.493Z,28.80
2018-05-08T12:21:55.553Z,28.30
2018-05-08T12:26:57.244Z,27.00
2018-05-08T12:31:58.272Z,27.00
2018-05-08T12:36:59.496Z,28.90
2018-05-08T12:42:00.576Z,28.80
2018-05-08T12:47:01.590Z,29.00
2018-05-08T12:52:02.626Z,29.20
2018-05-08T12:57:04.307Z,29.20
2018-05-08T13:02:06.838Z,29.60
2018-05-08T13:07:08.585Z,29.30
2018-05-08T13:12:09.582Z,29.30
2018-05-08T13:17:10.614Z,29.10
2018-05-08T13:22:12.367Z,28.90
2018-05-08T13:27:13.403Z,28.80
2018-05-08T13:32:14.438Z,27.80
2018-05-08T13:37:15.438Z,28.00
2018-05-08T13:42:16.434Z,26.50
2018-05-08T13:47:18.382Z,26.90
2018-05-08T13:52:19.543Z,26.90
2018-05-08T13:57:20.548Z,25.50
2018-05-08T14:02:21.545Z,25.60
2018-05-08T14:07:22.525Z,27.20
2018-05-08T14:12:23.527Z,27.70
2018-05-08T14:17:24.525Z,27.00
2018-05-08T14:22:25.544Z,28.10
2018-05-08T14:27:26.536Z,27.70
2018-05-08T14:32:27.529Z,25.80
2018-05-08T14:37:29.258Z,24.70
2018-05-08T14:42:30.255Z,24.70
2018-05-08T14:47:32.010Z,25.40
2018-05-08T14:52:33.010Z,25.30
2018-05-08T14:57:34.015Z,26.20
2018-05-08T15:02:35.015Z,26.20
2018-05-08T15:07:36.764Z,25.80
2018-05-08T15:12:37.787Z,25.80
2018-05-08T15:17:39.467Z,24.10
2018-05-08T15:22:40.877Z,24.50
2018-05-08T15:27:42.634Z,23.30
2018-05-08T15:32:43.622Z,23.30
2018-05-08T15:37:45.362Z,23.80
2018-05-08T15:42:46.354Z,23.30
2018-05-08T15:47:48.093Z,24.20
2018-05-08T15:52:49.106Z,23.80
2018-05-08T15:57:50.109Z,22.40
2018-05-08T16:02:51.870Z,22.90
2018-05-08T16:07:52.870Z,22.90
2018-05-08T16:12:54.654Z,23.20
2018-05-08T16:17:56.397Z,22.60
2018-05-08T16:22:57.382Z,22.60
2018-05-08T16:27:59.160Z,22.70
2018-05-08T16:33:00.870Z,23.00
2018-05-08T16:38:01.865Z,22.90
2018-05-08T16:43:02.885Z,23.70
2018-05-08T16:48:03.877Z,23.80
2018-05-08T16:53:04.860Z,23.80
2018-05-08T16:58:06.608Z,25.10
2018-05-08T17:03:07.582Z,25.00
2018-05-08T17:08:08.562Z,25.60
2018-05-08T17:13:10.286Z,25.60
2018-05-08T17:18:11.270Z,25.70
2018-05-08T17:23:12.242Z,26.10
2018-05-08T17:28:13.957Z,27.00
2018-05-08T17:33:14.966Z,27.00
2018-05-08T17:38:15.926Z,27.00
2018-05-08T17:43:17.658Z,27.40
2018-05-08T17:48:18.637Z,27.30
2018-05-08T17:53:19.660Z,28.10
2018-05-08T17:58:20.660Z,28.80
2018-05-08T18:03:22.410Z,29.50
2018-05-08T18:08:23.410Z,29.50
2018-05-08T18:13:25.138Z,30.20
2018-05-08T18:18:26.138Z,30.20
2018-05-08T18:23:27.889Z,31.10
2018-05-08T18:28:28.912Z,31.10
2018-05-08T18:33:29.945Z,31.20
2018-05-08T18:38:30.977Z,32.50
2018-05-08T18:43:32.827Z,35.70
2018-05-08T18:48:33.823Z,35.70
2018-05-08T18:53:35.559Z,37.50
2018-05-08T18:58:36.561Z,37.50
2018-05-08T19:03:38.295Z,38.60
2018-05-08T19:08:39.307Z,38.60
2018-05-08T19:13:40.426Z,38.90
2018-05-08T19:18:47.651Z,39.50
2018-05-08T19:23:55.439Z,40.80
2018-05-08T19:29:02.616Z,40.80
2018-05-08T19:34:03.632Z,40.80
2018-05-08T19:39:05.390Z,42.00
2018-05-08T19:44:06.446Z,42.00
2018-05-08T19:49:07.451Z,41.80
2018-05-08T19:54:08.438Z,42.20
2018-05-08T19:59:09.450Z,42.40
2018-05-08T20:04:11.188Z,43.30
2018-05-08T20:09:12.262Z,43.30
2018-05-08T20:14:13.266Z,44.00
2018-05-08T20:19:14.295Z,44.30
2018-05-08T20:24:16.063Z,44.80
2018-05-08T20:29:17.829Z,45.00
2018-05-08T20:34:19.556Z,45.70
2018-05-08T20:39:20.703Z,44.90
2018-05-08T20:44:21.625Z,45.20
2018-05-08T20:49:23.385Z,45.70
2018-05-08T20:54:24.430Z,45.60
2018-05-08T20:59:25.438Z,46.20
2018-05-08T21:04:26.446Z,46.30
2018-05-08T21:09:27.526Z,46.50
2018-05-08T21:14:29.298Z,47.20
2018-05-08T21:19:30.394Z,46.80
2018-05-08T21:24:31.442Z,47.00
2018-05-08T21:29:38.426Z,47.00
2018-05-08T21:34:40.176Z,47.90
2018-05-08T21:39:41.178Z,47.90
2018-05-08T21:44:42.195Z,48.00
2018-05-08T21:49:43.189Z,48.20
2018-05-08T21:54:44.198Z,48.70
2018-05-08T21:59:45.230Z,49.00
2018-05-08T22:04:46.245Z,49.20
2018-05-08T22:09:47.246Z,49.30
2018-05-08T22:14:48.252Z,49.30
2018-05-08T22:19:49.250Z,48.80
2018-05-08T22:24:50.293Z,49.10
2018-05-08T22:29:52.050Z,49.30
2018-05-08T22:34:53.813Z,49.20
2018-05-08T22:39:54.810Z,49.20
2018-05-08T22:44:56.543Z,49.00
2018-05-08T22:49:57.556Z,49.00
2018-05-08T22:54:58.632Z,48.40
2018-05-08T22:59:59.566Z,47.90
2018-05-08T23:05:00.605Z,47.70
2018-05-08T23:10:02.359Z,46.00
2018-05-08T23:15:04.149Z,44.70
2018-05-08T23:20:05.902Z,43.80
2018-05-08T23:25:06.941Z,43.80
2018-05-08T23:30:08.378Z,44.30
2018-05-08T23:35:09.432Z,44.30
2018-05-08T23:40:10.473Z,44.20
2018-05-08T23:45:12.250Z,43.50
2018-05-08T23:50:13.301Z,43.50
2018-05-08T23:55:14.418Z,43.40
